KDTN/DTN METAR and TAF weather

Enter ICAO airport designator
Station Type Date Time Source
KDTN METAR 2020/01/21 14:53 UTC NOAA

KDTN 211453Z 06008KT 10SM CLR 01/M04 A3060 RMK AO2 SLP363 T00061044 50010


Station Type Date Time Source
KDTN Decoded METAR 2020/01/21 14:53 UTC NOAA

SHREVEPORT DOWNTOWN AIRPORT, LA, United States (KDTN) 32-32N 093-45W 53M
Jan 21, 2020 - 09:53 AM EST / 2020.01.21 1453 UTC
Wind: from the ENE (060 degrees) at 9 MPH (8 KT):0
Visibility: 10 mile(s):0
Sky conditions: clear
Temperature: 33.1 F (0.6 C)
Windchill: 24 F (-4 C):1
Dew Point: 24.1 F (-4.4 C)
Relative Humidity: 69%
Pressure (altimeter): 30.6 in. Hg (1036 hPa)
Pressure tendency: 0.03 inches (1.0 hPa) higher than three hours ago
ob: KDTN 211453Z 06008KT 10SM CLR 01/M04 A3060 RMK AO2 SLP363 T00061044 50010
cycle: 15

Station Type Date Time Source
KDTN TAF UTC NOAA

Error!

Example: see airport list